createdAt,value
2022-09-30T00:01:34.310Z,17.10
2022-09-30T00:11:59.033Z,17.60
2022-09-30T00:22:23.620Z,18.30
2022-09-30T00:32:48.290Z,18.50
2022-09-30T00:43:16.875Z,18.10
2022-09-30T00:53:47.910Z,18.00
2022-09-30T01:04:15.332Z,16.50
2022-09-30T01:14:41.200Z,17.30
2022-09-30T01:25:37.984Z,16.50
2022-09-30T01:36:20.316Z,15.30
2022-09-30T01:46:51.693Z,18.60
2022-09-30T01:57:22.512Z,15.70
2022-09-30T02:07:51.643Z,15.70
2022-09-30T02:18:22.052Z,12.60
2022-09-30T02:28:50.548Z,13.20
2022-09-30T02:39:21.506Z,15.20
2022-09-30T02:49:49.570Z,13.70
2022-09-30T03:00:14.486Z,14.00
2022-09-30T03:10:40.052Z,14.80
2022-09-30T03:21:18.385Z,15.50
2022-09-30T03:31:52.779Z,14.10
2022-09-30T03:42:23.663Z,12.10
2022-09-30T03:52:49.388Z,12.70
2022-09-30T04:03:13.998Z,12.10
2022-09-30T04:13:38.955Z,14.70
2022-09-30T04:24:03.856Z,13.60
2022-09-30T04:34:28.475Z,12.90
2022-09-30T04:44:53.069Z,13.40
2022-09-30T04:55:17.901Z,13.50
2022-09-30T05:05:44.736Z,12.10
2022-09-30T05:16:10.359Z,14.20
2022-09-30T05:26:35.036Z,13.30
2022-09-30T05:36:59.676Z,14.30
2022-09-30T05:47:24.438Z,15.70
2022-09-30T05:57:49.937Z,15.80
2022-09-30T06:08:15.483Z,17.90
2022-09-30T06:18:41.047Z,14.80
2022-09-30T06:29:05.755Z,15.20
2022-09-30T06:39:30.560Z,13.50
2022-09-30T06:49:58.377Z,17.20
2022-09-30T07:00:23.963Z,17.60
2022-09-30T07:10:48.882Z,19.80
2022-09-30T07:22:19.749Z,17.50
2022-09-30T07:32:44.408Z,19.10
2022-09-30T07:43:08.972Z,20.70
2022-09-30T07:53:33.638Z,14.90
2022-09-30T08:04:00.366Z,12.40
2022-09-30T08:14:27.436Z,18.70
2022-09-30T08:24:52.092Z,13.10
2022-09-30T08:35:16.963Z,16.40
2022-09-30T08:45:51.400Z,13.40
2022-09-30T08:56:23.356Z,13.60
2022-09-30T09:06:57.342Z,13.40
2022-09-30T09:17:34.697Z,12.60
2022-09-30T09:28:00.894Z,11.30
2022-09-30T09:38:35.280Z,13.20
2022-09-30T09:49:31.676Z,13.70
2022-09-30T09:59:58.190Z,14.10
2022-09-30T10:10:24.549Z,15.10
2022-09-30T10:20:55.324Z,12.60
2022-09-30T10:31:24.811Z,9.20
2022-09-30T10:41:50.696Z,11.50
2022-09-30T10:52:20.808Z,10.10
2022-09-30T11:02:54.006Z,12.10
2022-09-30T11:13:24.883Z,10.00
2022-09-30T11:23:54.897Z,12.80
2022-09-30T11:34:36.166Z,12.80
2022-09-30T11:45:09.581Z,9.90
2022-09-30T11:55:51.661Z,13.70
2022-09-30T12:06:23.657Z,9.50
2022-09-30T12:16:50.753Z,11.40
2022-09-30T12:27:21.249Z,13.10
2022-09-30T12:38:06.633Z,13.50
2022-09-30T12:48:37.265Z,11.20
2022-09-30T12:59:03.327Z,13.00
2022-09-30T13:09:33.899Z,12.90
2022-09-30T13:19:58.558Z,11.70
2022-09-30T13:30:37.846Z,10.10
2022-09-30T13:41:08.999Z,15.20
2022-09-30T13:51:35.035Z,15.10
2022-09-30T14:02:26.613Z,16.60
2022-09-30T14:13:05.862Z,17.10
2022-09-30T14:23:30.526Z,17.80
2022-09-30T14:33:56.076Z,17.80
2022-09-30T14:44:21.783Z,17.40
2022-09-30T14:54:48.383Z,18.20
2022-09-30T15:05:15.517Z,20.70
2022-09-30T15:15:40.543Z,23.10
2022-09-30T15:26:06.576Z,21.30
2022-09-30T15:36:31.678Z,23.40
2022-09-30T15:47:05.518Z,22.70
2022-09-30T15:57:53.807Z,25.90
2022-09-30T16:08:23.369Z,25.20
2022-09-30T16:18:48.822Z,25.70
2022-09-30T16:29:17.003Z,28.70
2022-09-30T16:39:42.579Z,29.80
2022-09-30T16:50:19.008Z,32.60
2022-09-30T17:00:44.794Z,35.80
2022-09-30T17:11:10.535Z,33.60
2022-09-30T17:21:35.372Z,31.90
2022-09-30T17:32:00.527Z,32.90
2022-09-30T17:42:43.589Z,35.50
2022-09-30T17:53:08.541Z,36.10
2022-09-30T18:03:33.236Z,42.20
2022-09-30T18:13:59.534Z,37.00
2022-09-30T18:24:38.906Z,35.90
2022-09-30T18:35:06.582Z,32.10
2022-09-30T18:45:36.421Z,38.30
2022-09-30T18:56:01.831Z,35.60
2022-09-30T19:06:26.965Z,30.00
2022-09-30T19:16:52.119Z,31.10
2022-09-30T19:27:17.103Z,27.50
2022-09-30T19:37:52.251Z,35.90
2022-09-30T19:48:22.235Z,33.50
2022-09-30T19:58:48.840Z,32.80
2022-09-30T20:09:13.853Z,34.20
2022-09-30T20:19:38.698Z,32.70
2022-09-30T20:30:03.751Z,32.30
2022-09-30T20:40:28.536Z,33.60
2022-09-30T20:50:53.207Z,24.50
2022-09-30T21:01:20.103Z,25.90
2022-09-30T21:11:44.818Z,26.60
2022-09-30T21:22:10.060Z,26.30
2022-09-30T21:32:34.744Z,25.90
2022-09-30T21:42:59.932Z,24.60
2022-09-30T21:53:26.836Z,26.60
2022-09-30T22:03:51.489Z,31.90
2022-09-30T22:14:16.422Z,32.90
2022-09-30T22:24:41.042Z,35.20
2022-09-30T22:35:25.295Z,42.10
2022-09-30T22:45:49.960Z,37.80
2022-09-30T22:56:14.674Z,34.40
2022-09-30T23:06:39.236Z,29.20
2022-09-30T23:17:03.868Z,27.90
2022-09-30T23:27:28.642Z,29.30
2022-09-30T23:37:53.298Z,27.40
2022-09-30T23:48:18.019Z,30.10
2022-09-30T23:58:43.361Z,35.90
